createdAt,value
2023-03-13T00:01:22.933Z,13.50
2023-03-13T00:03:50.176Z,27.13
2023-03-13T00:06:17.974Z,24.95
2023-03-13T00:08:45.247Z,27.65
2023-03-13T00:11:15.288Z,22.23
2023-03-13T00:13:45.224Z,26.30
2023-03-13T00:16:15.531Z,20.92
2023-03-13T00:18:47.957Z,25.92
2023-03-13T00:21:16.026Z,26.65
2023-03-13T00:23:43.102Z,23.35
2023-03-13T00:26:14.141Z,25.80
2023-03-13T00:28:42.474Z,21.60
2023-03-13T00:31:15.397Z,27.02
2023-03-13T00:33:46.010Z,29.30
2023-03-13T00:36:17.253Z,16.27
2023-03-13T00:38:44.900Z,23.20
2023-03-13T00:41:15.527Z,21.10
2023-03-13T00:43:43.970Z,22.60
2023-03-13T00:46:13.427Z,28.88
2023-03-13T00:48:40.866Z,28.35
2023-03-13T00:51:08.535Z,23.25
2023-03-13T00:53:35.959Z,26.63
2023-03-13T00:56:15.103Z,19.05
2023-03-13T00:58:44.441Z,26.35
2023-03-13T01:01:12.950Z,15.50
2023-03-13T01:03:41.980Z,24.17
2023-03-13T01:06:13.296Z,21.00
2023-03-13T01:08:40.743Z,18.95
2023-03-13T01:11:17.494Z,26.17
2023-03-13T01:13:46.324Z,29.38
2023-03-13T01:16:19.301Z,14.13
2023-03-13T01:18:51.887Z,28.17
2023-03-13T01:21:20.276Z,17.48
2023-03-13T01:23:48.492Z,18.65
2023-03-13T01:26:15.843Z,26.52
2023-03-13T01:28:43.094Z,18.45
2023-03-13T01:31:23.506Z,21.40
2023-03-13T01:33:54.785Z,19.88
2023-03-13T01:36:22.483Z,26.17
2023-03-13T01:38:55.919Z,23.42
2023-03-13T01:41:24.577Z,17.75
2023-03-13T01:43:52.623Z,18.48
2023-03-13T01:46:25.342Z,14.55
2023-03-13T01:49:11.396Z,16.10
2023-03-13T01:51:58.823Z,15.50
2023-03-13T01:55:01.239Z,14.43
2023-03-13T01:57:50.481Z,13.35
2023-03-13T02:00:25.346Z,17.70
2023-03-13T02:02:57.183Z,22.53
2023-03-13T02:05:27.606Z,11.20
2023-03-13T02:08:02.026Z,11.75
2023-03-13T02:10:34.181Z,10.52
2023-03-13T02:13:03.018Z,10.23
2023-03-13T02:15:31.707Z,9.00
2023-03-13T02:18:00.196Z,10.60
2023-03-13T02:20:27.521Z,9.88
2023-03-13T02:23:18.364Z,11.65
2023-03-13T02:25:49.679Z,11.55
2023-03-13T02:28:28.033Z,10.02
2023-03-13T02:30:58.589Z,14.95
2023-03-13T02:33:32.740Z,16.38
2023-03-13T02:36:02.375Z,15.13
2023-03-13T02:38:34.638Z,13.95
2023-03-13T02:41:04.654Z,14.20
2023-03-13T02:43:35.878Z,10.88
2023-03-13T02:46:09.842Z,11.38
2023-03-13T02:48:51.332Z,10.00
2023-03-13T02:51:40.692Z,6.88
2023-03-13T02:54:22.632Z,8.13
2023-03-13T02:56:57.581Z,12.13
2023-03-13T02:59:25.420Z,15.23
2023-03-13T03:01:52.780Z,10.82
2023-03-13T03:04:22.138Z,16.92
2023-03-13T03:06:54.214Z,11.93
2023-03-13T03:09:22.300Z,12.80
2023-03-13T03:11:52.594Z,11.63
2023-03-13T03:14:20.184Z,13.23
2023-03-13T03:16:48.395Z,13.88
2023-03-13T03:19:15.449Z,19.48
2023-03-13T03:21:42.648Z,14.55
2023-03-13T03:24:10.219Z,14.50
2023-03-13T03:26:37.546Z,12.88
2023-03-13T03:29:11.092Z,13.27
2023-03-13T03:31:38.804Z,13.45
2023-03-13T03:34:05.760Z,14.32
2023-03-13T03:36:32.777Z,9.68
2023-03-13T03:39:01.042Z,10.32
2023-03-13T03:41:28.870Z,15.52
2023-03-13T03:43:56.419Z,13.95
2023-03-13T03:46:28.013Z,10.70
2023-03-13T03:48:56.679Z,12.23
2023-03-13T03:51:24.538Z,10.70
2023-03-13T03:53:51.997Z,11.18
2023-03-13T03:56:19.041Z,14.40
2023-03-13T03:58:51.054Z,12.60
2023-03-13T04:01:24.756Z,7.65
2023-03-13T04:03:52.491Z,11.43
2023-03-13T04:06:19.791Z,10.65
2023-03-13T04:08:47.834Z,11.60
2023-03-13T04:11:17.515Z,14.02
2023-03-13T04:13:49.782Z,12.95
2023-03-13T04:16:17.256Z,14.38
2023-03-13T04:18:45.720Z,15.32
2023-03-13T04:21:12.889Z,9.10
2023-03-13T04:23:44.747Z,12.02
2023-03-13T04:26:13.438Z,14.18
2023-03-13T04:28:41.581Z,13.38
2023-03-13T04:31:10.341Z,9.68
2023-03-13T04:34:06.627Z,13.40
2023-03-13T04:39:38.454Z,11.82
2023-03-13T04:42:21.541Z,10.10
2023-03-13T04:45:07.901Z,12.00
2023-03-13T04:47:57.761Z,10.02
2023-03-13T04:50:38.953Z,10.32
2023-03-13T04:56:02.001Z,15.73
2023-03-13T04:58:47.542Z,15.23
2023-03-13T05:01:33.227Z,13.40
2023-03-13T05:04:23.320Z,24.33
2023-03-13T05:07:13.283Z,16.95
2023-03-13T05:09:59.124Z,16.52
2023-03-13T05:13:01.442Z,13.90
2023-03-13T05:15:44.756Z,13.82
2023-03-13T05:18:31.136Z,12.98
2023-03-13T05:21:07.180Z,14.57
2023-03-13T05:23:49.349Z,13.98
2023-03-13T05:26:37.288Z,14.95
2023-03-13T05:29:27.301Z,16.25
2023-03-13T05:32:12.739Z,11.73
2023-03-13T05:34:57.404Z,11.82
2023-03-13T05:37:41.199Z,14.85
2023-03-13T05:40:34.536Z,14.43
2023-03-13T05:43:11.475Z,14.32
2023-03-13T05:45:58.630Z,14.43
2023-03-13T05:48:55.195Z,12.60
2023-03-13T05:51:40.841Z,10.82
2023-03-13T05:54:26.277Z,16.55
2023-03-13T05:57:16.560Z,15.45
2023-03-13T06:00:03.739Z,12.38
2023-03-13T06:02:55.106Z,8.13
2023-03-13T06:05:29.494Z,10.52
2023-03-13T06:07:57.496Z,13.15
2023-03-13T06:10:24.525Z,16.33
2023-03-13T06:12:56.407Z,13.63
2023-03-13T06:15:27.534Z,9.35
2023-03-13T06:18:09.422Z,20.27
2023-03-13T06:20:36.333Z,9.35
2023-03-13T06:23:03.344Z,13.18
2023-03-13T06:25:30.308Z,9.55
2023-03-13T06:27:57.426Z,8.80
2023-03-13T06:30:24.410Z,16.65
2023-03-13T06:32:51.471Z,14.52
2023-03-13T06:35:18.610Z,12.63
2023-03-13T06:37:45.502Z,10.70
2023-03-13T06:40:13.201Z,14.25
2023-03-13T06:42:40.148Z,12.32
2023-03-13T06:45:08.039Z,12.73
2023-03-13T06:47:34.960Z,8.75
2023-03-13T06:50:01.973Z,7.53
2023-03-13T06:52:42.786Z,8.90
2023-03-13T06:55:11.967Z,6.22
2023-03-13T06:57:38.913Z,8.15
2023-03-13T07:00:07.395Z,8.93
2023-03-13T07:02:34.360Z,9.95
2023-03-13T07:05:05.678Z,17.73
2023-03-13T07:07:35.730Z,8.98
2023-03-13T07:10:03.806Z,6.97
2023-03-13T07:12:30.664Z,6.25
2023-03-13T07:14:57.629Z,6.95
2023-03-13T07:17:24.687Z,7.47
2023-03-13T07:19:51.659Z,9.55
2023-03-13T07:22:19.018Z,13.18
2023-03-13T07:24:46.431Z,10.45
2023-03-13T07:27:14.128Z,13.77
2023-03-13T07:29:41.215Z,5.07
2023-03-13T07:32:08.663Z,6.88
2023-03-13T07:34:35.974Z,7.13
2023-03-13T07:37:03.027Z,11.00
2023-03-13T07:39:30.268Z,5.03
2023-03-13T07:41:58.105Z,6.93
2023-03-13T07:44:25.389Z,9.60
2023-03-13T07:46:52.406Z,7.78
2023-03-13T07:49:19.593Z,5.53
2023-03-13T07:51:48.253Z,15.45
2023-03-13T07:54:15.332Z,6.75
2023-03-13T07:56:42.316Z,12.65
2023-03-13T07:59:09.851Z,8.95
2023-03-13T08:01:37.345Z,10.23
2023-03-13T08:04:05.651Z,10.50
2023-03-13T08:06:37.559Z,6.20
2023-03-13T08:09:05.639Z,8.40
2023-03-13T08:11:33.171Z,7.65
2023-03-13T08:14:00.521Z,8.18
2023-03-13T08:16:31.139Z,11.70
2023-03-13T08:18:59.762Z,9.68
2023-03-13T08:21:33.235Z,16.95
2023-03-13T08:24:05.957Z,6.38
2023-03-13T08:26:36.311Z,9.00
2023-03-13T08:29:08.047Z,10.80
2023-03-13T08:31:39.302Z,8.07
2023-03-13T08:34:06.477Z,10.32
2023-03-13T08:36:36.530Z,6.32
2023-03-13T08:39:17.232Z,5.90
2023-03-13T08:41:45.040Z,12.98
2023-03-13T08:44:15.699Z,5.78
2023-03-13T08:46:44.132Z,6.13
2023-03-13T08:49:12.759Z,6.47
2023-03-13T08:51:40.804Z,6.80
2023-03-13T08:54:08.257Z,4.78
2023-03-13T08:56:35.551Z,6.20
2023-03-13T08:59:04.731Z,8.27
2023-03-13T09:01:35.233Z,6.70
2023-03-13T09:04:06.082Z,8.57
2023-03-13T09:06:38.239Z,10.00
2023-03-13T09:09:07.104Z,6.18
2023-03-13T09:11:35.998Z,4.20
2023-03-13T09:14:03.214Z,6.88
2023-03-13T09:16:32.660Z,4.65
2023-03-13T09:19:00.485Z,7.47
2023-03-13T09:21:31.405Z,6.00
2023-03-13T09:23:59.296Z,7.03
2023-03-13T09:26:28.156Z,4.35
2023-03-13T09:28:56.236Z,3.28
2023-03-13T09:31:30.239Z,5.90
2023-03-13T09:33:58.079Z,7.53
2023-03-13T09:36:25.768Z,6.55
2023-03-13T09:38:55.804Z,2.30
2023-03-13T09:42:09.594Z,3.28
2023-03-13T09:44:46.654Z,5.47
2023-03-13T09:47:30.325Z,5.07
2023-03-13T09:50:26.947Z,10.45
2023-03-13T09:55:31.205Z,4.55
2023-03-13T09:58:27.574Z,12.43
2023-03-13T10:00:55.201Z,6.78
2023-03-13T10:03:30.040Z,3.03
2023-03-13T10:06:01.804Z,7.70
2023-03-13T10:08:33.238Z,5.53
2023-03-13T10:11:07.975Z,3.92
2023-03-13T10:13:58.208Z,2.83
2023-03-13T10:16:37.644Z,6.55
2023-03-13T10:19:18.624Z,3.15
2023-03-13T10:21:51.636Z,5.43
2023-03-13T10:25:05.344Z,6.00
2023-03-13T10:27:32.549Z,3.72
2023-03-13T10:29:59.476Z,8.10
2023-03-13T10:32:27.608Z,5.70
2023-03-13T10:35:03.141Z,4.07
2023-03-13T10:37:33.792Z,2.10
2023-03-13T10:40:28.156Z,4.68
2023-03-13T10:43:03.981Z,3.22
2023-03-13T10:45:37.855Z,3.55
2023-03-13T10:48:19.932Z,2.92
2023-03-13T10:50:50.516Z,5.10
2023-03-13T10:53:33.659Z,4.35
2023-03-13T10:56:13.298Z,2.47
2023-03-13T10:58:47.357Z,4.35
2023-03-13T11:01:28.865Z,8.77
2023-03-13T11:03:57.933Z,9.05
2023-03-13T11:06:32.062Z,3.88
2023-03-13T11:09:03.522Z,5.32
2023-03-13T11:11:31.108Z,3.33
2023-03-13T11:14:10.106Z,4.63
2023-03-13T11:16:51.536Z,3.30
2023-03-13T11:19:38.607Z,2.38
2023-03-13T11:22:21.627Z,4.03
2023-03-13T11:25:20.792Z,4.50
2023-03-13T11:28:52.827Z,2.78
2023-03-13T11:31:36.425Z,3.53
2023-03-13T11:34:26.577Z,2.78
2023-03-13T11:37:16.229Z,6.15
2023-03-13T11:40:10.430Z,1.85
2023-03-13T11:43:27.432Z,3.83
2023-03-13T11:46:20.275Z,4.28
2023-03-13T11:49:14.487Z,2.25
2023-03-13T11:51:50.298Z,2.88
2023-03-13T11:54:58.609Z,3.00
2023-03-13T11:57:39.868Z,2.28
2023-03-13T12:00:49.422Z,2.50
2023-03-13T12:03:51.746Z,2.67
2023-03-13T12:06:33.438Z,2.63
2023-03-13T12:09:17.268Z,1.35
2023-03-13T12:11:55.327Z,3.72
2023-03-13T12:14:30.693Z,2.05
2023-03-13T12:17:06.722Z,2.30
2023-03-13T12:20:01.572Z,1.92
2023-03-13T12:22:43.242Z,1.88
2023-03-13T12:25:20.240Z,1.27
2023-03-13T12:27:56.702Z,3.47
2023-03-13T12:30:48.104Z,2.10
2023-03-13T12:33:27.134Z,3.35
2023-03-13T12:36:14.005Z,2.35
2023-03-13T12:39:00.735Z,3.72
2023-03-13T12:41:42.037Z,10.85
2023-03-13T12:44:21.046Z,3.15
2023-03-13T12:47:24.675Z,2.72
2023-03-13T12:50:16.799Z,5.10
2023-03-13T12:52:58.817Z,4.88
2023-03-13T12:55:56.449Z,4.72
2023-03-13T12:58:38.401Z,4.95
2023-03-13T13:01:07.929Z,2.08
2023-03-13T13:03:39.857Z,4.13
2023-03-13T13:06:10.139Z,3.88
2023-03-13T13:08:43.983Z,2.97
2023-03-13T13:11:38.416Z,2.65
2023-03-13T13:14:17.262Z,5.80
2023-03-13T13:16:50.820Z,2.80
2023-03-13T13:19:23.534Z,4.32
2023-03-13T13:22:37.262Z,2.38
2023-03-13T13:25:13.743Z,5.40
2023-03-13T13:27:40.821Z,4.93
2023-03-13T13:30:19.855Z,4.68
2023-03-13T13:32:49.082Z,4.38
2023-03-13T13:35:34.808Z,1.73
2023-03-13T13:38:21.591Z,4.22
2023-03-13T13:41:11.754Z,2.83
2023-03-13T13:43:49.192Z,6.70
2023-03-13T13:46:33.368Z,2.75
2023-03-13T13:49:15.946Z,2.90
2023-03-13T13:52:03.899Z,1.95
2023-03-13T13:54:42.373Z,3.00
2023-03-13T13:57:23.036Z,3.85
2023-03-13T14:00:19.617Z,4.13
2023-03-13T14:02:57.621Z,3.20
2023-03-13T14:05:28.145Z,4.70
2023-03-13T14:08:13.552Z,1.58
2023-03-13T14:10:46.896Z,3.58
2023-03-13T14:13:19.524Z,4.80
2023-03-13T14:15:55.194Z,2.33
2023-03-13T14:21:00.695Z,0.85
2023-03-13T14:23:44.086Z,3.00
2023-03-13T14:26:26.944Z,7.03
2023-03-13T14:29:01.276Z,6.50
2023-03-13T14:31:34.700Z,6.45
2023-03-13T14:34:07.134Z,9.13
2023-03-13T14:37:14.852Z,10.38
2023-03-13T14:39:48.600Z,6.82
2023-03-13T14:42:18.308Z,5.35
2023-03-13T14:44:49.691Z,6.07
2023-03-13T14:47:36.949Z,4.90
2023-03-13T14:50:11.571Z,8.27
2023-03-13T14:52:45.467Z,7.97
2023-03-13T14:55:21.828Z,6.32
2023-03-13T14:58:02.292Z,7.72
2023-03-13T15:00:39.592Z,7.45
2023-03-13T15:03:20.014Z,13.48
2023-03-13T15:06:15.345Z,13.85
2023-03-13T15:08:45.958Z,9.27
2023-03-13T15:11:24.587Z,7.50
2023-03-13T15:13:51.715Z,8.18
2023-03-13T15:16:21.746Z,9.38
2023-03-13T15:18:51.406Z,13.07
2023-03-13T15:21:31.392Z,10.57
2023-03-13T15:24:12.291Z,8.57
2023-03-13T15:26:39.459Z,9.23
2023-03-13T15:29:06.507Z,12.23
2023-03-13T15:31:33.797Z,11.95
2023-03-13T15:34:01.927Z,11.00
2023-03-13T15:36:30.809Z,7.00
2023-03-13T15:38:58.199Z,5.78
2023-03-13T15:41:25.377Z,11.02
2023-03-13T15:43:52.858Z,7.88
2023-03-13T15:46:21.212Z,7.55
2023-03-13T15:48:48.663Z,7.97
2023-03-13T15:51:17.628Z,8.75
2023-03-13T15:53:46.219Z,6.78
2023-03-13T15:56:23.032Z,11.27
2023-03-13T15:58:51.213Z,11.90
2023-03-13T16:01:18.867Z,7.47
2023-03-13T16:03:46.278Z,7.32
2023-03-13T16:06:20.759Z,6.88
2023-03-13T16:08:48.072Z,8.50
2023-03-13T16:11:16.979Z,10.02
2023-03-13T16:13:44.569Z,8.45
2023-03-13T16:16:25.595Z,9.43
2023-03-13T16:18:53.129Z,12.20
2023-03-13T16:21:30.768Z,8.95
2023-03-13T16:23:58.078Z,14.25
2023-03-13T16:26:28.929Z,11.52
2023-03-13T16:28:56.151Z,8.50
2023-03-13T16:31:27.778Z,15.02
2023-03-13T16:33:56.088Z,14.63
2023-03-13T16:36:28.658Z,14.05
2023-03-13T16:38:55.810Z,11.48
2023-03-13T16:41:27.655Z,9.32
2023-03-13T16:43:55.866Z,11.88
2023-03-13T16:46:35.210Z,11.65
2023-03-13T16:49:04.090Z,13.75
2023-03-13T16:51:31.506Z,15.48
2023-03-13T16:54:03.821Z,13.88
2023-03-13T16:56:37.495Z,11.65
2023-03-13T16:59:12.229Z,14.93
2023-03-13T17:01:39.274Z,11.73
2023-03-13T17:04:06.590Z,14.50
2023-03-13T17:06:41.365Z,17.85
2023-03-13T17:09:16.324Z,10.47
2023-03-13T17:11:44.212Z,9.77
2023-03-13T17:14:11.315Z,12.68
2023-03-13T17:16:48.026Z,13.65
2023-03-13T17:19:16.756Z,10.52
2023-03-13T17:21:43.837Z,9.50
2023-03-13T17:24:10.758Z,17.67
2023-03-13T17:26:39.678Z,14.55
2023-03-13T17:29:08.526Z,13.25
2023-03-13T17:31:38.801Z,11.20
2023-03-13T17:34:09.749Z,20.52
2023-03-13T17:36:37.055Z,15.15
2023-03-13T17:39:08.812Z,10.85
2023-03-13T17:41:36.376Z,8.75
2023-03-13T17:44:03.882Z,14.38
2023-03-13T17:46:42.766Z,19.00
2023-03-13T17:49:18.236Z,18.70
2023-03-13T17:51:46.331Z,10.05
2023-03-13T17:54:15.862Z,13.32
2023-03-13T17:56:44.385Z,15.75
2023-03-13T17:59:19.146Z,15.43
2023-03-13T18:01:46.253Z,11.13
2023-03-13T18:04:13.959Z,14.60
2023-03-13T18:06:50.465Z,14.27
2023-03-13T18:09:22.095Z,7.18
2023-03-13T18:11:49.986Z,13.38
2023-03-13T18:14:17.087Z,14.73
2023-03-13T18:16:47.987Z,11.55
2023-03-13T18:19:22.938Z,16.88
2023-03-13T18:21:52.988Z,13.27
2023-03-13T18:24:20.764Z,13.98
2023-03-13T18:26:49.722Z,11.48
2023-03-13T18:29:26.467Z,18.48
2023-03-13T18:31:58.970Z,12.43
2023-03-13T18:34:26.542Z,10.18
2023-03-13T18:36:55.410Z,13.90
2023-03-13T18:39:22.743Z,15.13
2023-03-13T18:41:52.308Z,11.20
2023-03-13T18:44:20.956Z,9.02
2023-03-13T18:46:48.029Z,12.48
2023-03-13T18:49:21.657Z,10.23
2023-03-13T18:51:50.524Z,15.63
2023-03-13T18:54:18.135Z,16.48
2023-03-13T18:56:47.353Z,12.80
2023-03-13T18:59:20.837Z,19.25
2023-03-13T19:01:48.544Z,15.57
2023-03-13T19:04:16.534Z,15.57
2023-03-13T19:06:46.016Z,9.32
2023-03-13T19:09:42.201Z,8.15
2023-03-13T19:12:11.444Z,10.63
2023-03-13T19:14:38.626Z,19.45
2023-03-13T19:17:13.989Z,12.95
2023-03-13T19:19:40.862Z,11.07
2023-03-13T19:22:13.313Z,14.32
2023-03-13T19:24:40.700Z,16.92
2023-03-13T19:27:07.691Z,17.67
2023-03-13T19:29:36.530Z,18.35
2023-03-13T19:32:07.237Z,20.25
2023-03-13T19:34:34.214Z,17.70
2023-03-13T19:37:01.294Z,12.18
2023-03-13T19:39:28.433Z,11.48
2023-03-13T19:41:56.561Z,21.38
2023-03-13T19:44:24.771Z,14.65
2023-03-13T19:46:54.589Z,12.20
2023-03-13T19:49:21.854Z,23.15
2023-03-13T19:51:49.065Z,22.75
2023-03-13T19:54:16.056Z,16.63
2023-03-13T19:56:47.103Z,13.48
2023-03-13T19:59:19.820Z,18.60
2023-03-13T20:01:47.101Z,17.98
2023-03-13T20:04:14.633Z,14.38
2023-03-13T20:06:42.974Z,21.75
2023-03-13T20:09:17.368Z,24.00
2023-03-13T20:11:44.961Z,12.35
2023-03-13T20:14:12.482Z,18.10
2023-03-13T20:16:39.895Z,13.50
2023-03-13T20:19:06.955Z,22.38
2023-03-13T20:21:36.550Z,16.27
2023-03-13T20:24:04.213Z,33.80
2023-03-13T20:26:31.320Z,17.73
2023-03-13T20:28:59.345Z,16.45
2023-03-13T20:31:30.602Z,20.48
2023-03-13T20:33:58.854Z,17.75
2023-03-13T20:36:26.445Z,21.88
2023-03-13T20:38:53.909Z,17.60
2023-03-13T20:41:25.677Z,20.15
2023-03-13T20:43:53.119Z,18.30
2023-03-13T20:46:20.782Z,20.92
2023-03-13T20:48:47.722Z,20.20
2023-03-13T20:51:14.708Z,17.77
2023-03-13T20:53:42.597Z,16.90
2023-03-13T20:56:10.904Z,19.50
2023-03-13T20:58:38.845Z,14.23
2023-03-13T21:01:07.392Z,22.17
2023-03-13T21:03:35.722Z,20.00
2023-03-13T21:06:15.466Z,13.23
2023-03-13T21:08:43.483Z,14.35
2023-03-13T21:11:21.478Z,22.05
2023-03-13T21:13:49.124Z,21.77
2023-03-13T21:16:18.451Z,17.95
2023-03-13T21:18:45.998Z,23.10
2023-03-13T21:21:18.502Z,16.77
2023-03-13T21:23:46.386Z,19.17
2023-03-13T21:26:14.325Z,14.90
2023-03-13T21:28:41.325Z,21.08
2023-03-13T21:31:12.621Z,16.25
2023-03-13T21:33:41.106Z,12.18
2023-03-13T21:36:09.266Z,21.30
2023-03-13T21:38:36.863Z,21.35
2023-03-13T21:41:17.096Z,19.02
2023-03-13T21:43:44.924Z,16.05
2023-03-13T21:46:15.515Z,18.65
2023-03-13T21:51:12.876Z,17.17
2023-03-13T21:53:42.064Z,14.27
2023-03-13T21:56:14.994Z,21.63
2023-03-13T21:58:43.207Z,23.63
2023-03-13T22:01:10.195Z,19.73
2023-03-13T22:03:37.154Z,17.02
2023-03-13T22:06:11.509Z,18.95
2023-03-13T22:08:38.418Z,18.48
2023-03-13T22:11:05.770Z,22.13
2023-03-13T22:13:32.743Z,24.25
2023-03-13T22:15:59.616Z,27.35
2023-03-13T22:18:26.965Z,17.42
2023-03-13T22:20:58.233Z,16.50
2023-03-13T22:23:25.821Z,16.77
2023-03-13T22:25:57.348Z,16.58
2023-03-13T22:28:25.468Z,18.30
2023-03-13T22:30:52.737Z,16.65
2023-03-13T22:33:19.742Z,22.35
2023-03-13T22:35:52.336Z,18.48
2023-03-13T22:38:21.163Z,22.58
2023-03-13T22:40:59.937Z,14.70
2023-03-13T22:43:27.792Z,13.40
2023-03-13T22:45:56.607Z,15.60
2023-03-13T22:48:24.048Z,22.23
2023-03-13T22:51:09.512Z,15.95
2023-03-13T22:53:39.008Z,12.90
2023-03-13T22:56:07.317Z,16.55
2023-03-13T22:58:34.496Z,13.13
2023-03-13T23:01:01.654Z,15.85
2023-03-13T23:03:28.545Z,13.52
2023-03-13T23:05:55.412Z,13.65
2023-03-13T23:08:23.000Z,8.25
2023-03-13T23:10:49.880Z,13.13
2023-03-13T23:13:16.917Z,16.20
2023-03-13T23:15:59.210Z,10.38
2023-03-13T23:18:27.649Z,13.07
2023-03-13T23:20:55.110Z,10.02
2023-03-13T23:23:22.075Z,9.93
2023-03-13T23:25:49.358Z,9.25
2023-03-13T23:28:16.317Z,12.43
2023-03-13T23:30:43.258Z,9.68
2023-03-13T23:33:10.193Z,6.35
2023-03-13T23:35:38.174Z,8.32
2023-03-13T23:38:05.143Z,7.97
2023-03-13T23:40:32.786Z,13.13
2023-03-13T23:42:59.777Z,9.00
2023-03-13T23:45:26.749Z,9.10
2023-03-13T23:47:54.466Z,4.30
2023-03-13T23:50:22.133Z,5.90
2023-03-13T23:52:49.194Z,10.95
2023-03-13T23:55:16.350Z,9.65
2023-03-13T23:57:43.375Z,6.55
